Aérodrome :
LOGIN :

S'inscrire | Disclaimer

   EN    FR    IT 

 










Légende :    VFR   VFR Marginal   IFR   IFR Intensif   IFR Très Intensif
Visi : 
Plafond : 
>= 8 km
>= 3000ft
5 à 8 km
1000 à 3000 ft
1500m à 5 km
500 à 1000 ft
800 à 1500m
200 à 500 ft
< 800m
< 200 ft
Symboles :   Orages  Brouillard  Fortes neiges  Fortes précipitations  Vent > 20 kt
SIGMETs :   Divers  Orages  Givrage  Turbulence  Onde Orograph.  Cendres Volcan.







- Altitude de l'aérodrome : 124 ft
- Code IATA : AVN
- Voir les cartes d'approche


LFMV - Avignon Caumont

DERNIER METAR :
  • 301030Z AUTO VRB02KT 9999 NSC 20/10 Q1025 NOSIG

METARs EXPIRÉS :
  • 301000Z AUTO VRB02KT 9999 NSC 19/11 Q1026 NOSIG
  • 300930Z AUTO VRB02KT 9999 NSC 18/11 Q1026 NOSIG
  • 300900Z AUTO VRB02KT 9999 NSC 16/10 Q1026 NOSIG
  • 300830Z AUTO VRB02KT 9999 NSC 15/10 Q1026 NOSIG
  • 300800Z AUTO VRB02KT 9999 NSC 13/10 Q1026 NOSIG

TAF TAF LFMV
Valide du 30 à 09h jusqu'au 31 à 09h UTC


300800Z 3009/3109 VRB05KT CAVOK
TEMPO 3012/3017 22010KT
TEMPO 3018/3106 2500 BR BKN005
PROB40
TEMPO 3018/3106 0500 FG VV///
ATIS : +33 4 90 84 32 84
Pas de NOTAMs connus pour ce terrain.



MET'MAP, la Météo Aéronautique d'un coup d'oeil ! - Copyright ORBIFLY Décembre 2007 - Disclaimer

ORBIFLY MET'MAP TEAM :

Programmation & Développement : Alexandra Zaïnal
Conception & Développement : Baudouin d'Aumeries
Co-Programmation & Développement : Marc-Olivier Méhu
Soutien technique & logistique : Manuel Goepfert

Contact : metmap@orbifly.com




SOURCES & CREDITS :

   NOAA